sensor_id;sensor_type;location;lat;lon;timestamp;P1;durP1;ratioP1;P2;durP2;ratioP2
18899;SDS011;9582;52.018;6.306;2022-10-31T00:01:21;17.83;;;12.13;;
18899;SDS011;9582;52.018;6.306;2022-10-31T00:03:49;16.95;;;12.57;;
18899;SDS011;9582;52.018;6.306;2022-10-31T00:06:17;19.05;;;13.55;;
18899;SDS011;9582;52.018;6.306;2022-10-31T00:08:43;22.05;;;14.02;;
18899;SDS011;9582;52.018;6.306;2022-10-31T00:11:10;19.58;;;13.15;;
18899;SDS011;9582;52.018;6.306;2022-10-31T00:13:36;20.15;;;13.93;;
18899;SDS011;9582;52.018;6.306;2022-10-31T00:16:03;16.70;;;12.48;;
18899;SDS011;9582;52.018;6.306;2022-10-31T00:18:30;17.70;;;12.95;;
18899;SDS011;9582;52.018;6.306;2022-10-31T00:21:00;20.70;;;13.18;;
18899;SDS011;9582;52.018;6.306;2022-10-31T00:23:28;18.58;;;13.00;;
18899;SDS011;9582;52.018;6.306;2022-10-31T00:25:59;20.65;;;12.27;;
18899;SDS011;9582;52.018;6.306;2022-10-31T00:28:26;19.58;;;12.73;;
18899;SDS011;9582;52.018;6.306;2022-10-31T00:30:52;16.73;;;12.80;;
18899;SDS011;9582;52.018;6.306;2022-10-31T00:33:19;24.42;;;13.35;;
18899;SDS011;9582;52.018;6.306;2022-10-31T00:35:49;18.02;;;12.25;;
18899;SDS011;9582;52.018;6.306;2022-10-31T00:38:16;19.45;;;12.93;;
18899;SDS011;9582;52.018;6.306;2022-10-31T00:40:43;19.45;;;12.52;;
18899;SDS011;9582;52.018;6.306;2022-10-31T00:43:10;19.15;;;12.93;;
18899;SDS011;9582;52.018;6.306;2022-10-31T00:45:36;18.60;;;12.02;;
18899;SDS011;9582;52.018;6.306;2022-10-31T00:48:03;17.20;;;12.07;;
18899;SDS011;9582;52.018;6.306;2022-10-31T00:50:30;19.80;;;13.05;;
18899;SDS011;9582;52.018;6.306;2022-10-31T00:52:58;23.55;;;13.95;;
18899;SDS011;9582;52.018;6.306;2022-10-31T00:55:26;20.27;;;13.30;;
18899;SDS011;9582;52.018;6.306;2022-10-31T00:57:54;17.55;;;12.55;;
18899;SDS011;9582;52.018;6.306;2022-10-31T01:00:21;15.95;;;11.85;;
18899;SDS011;9582;52.018;6.306;2022-10-31T01:02:48;17.17;;;11.60;;
18899;SDS011;9582;52.018;6.306;2022-10-31T01:05:15;19.00;;;12.43;;
18899;SDS011;9582;52.018;6.306;2022-10-31T01:07:43;17.93;;;12.70;;
18899;SDS011;9582;52.018;6.306;2022-10-31T01:10:10;16.92;;;12.05;;
18899;SDS011;9582;52.018;6.306;2022-10-31T01:12:37;22.77;;;13.20;;
18899;SDS011;9582;52.018;6.306;2022-10-31T01:15:06;22.65;;;13.82;;
18899;SDS011;9582;52.018;6.306;2022-10-31T01:17:33;22.05;;;13.68;;
18899;SDS011;9582;52.018;6.306;2022-10-31T01:20:00;22.27;;;14.03;;
18899;SDS011;9582;52.018;6.306;2022-10-31T01:22:27;22.07;;;14.23;;
18899;SDS011;9582;52.018;6.306;2022-10-31T01:24:53;20.37;;;14.87;;
18899;SDS011;9582;52.018;6.306;2022-10-31T01:27:20;25.43;;;15.27;;
18899;SDS011;9582;52.018;6.306;2022-10-31T01:29:46;24.63;;;14.67;;
18899;SDS011;9582;52.018;6.306;2022-10-31T01:32:14;22.77;;;15.07;;
18899;SDS011;9582;52.018;6.306;2022-10-31T01:34:41;21.93;;;13.77;;
18899;SDS011;9582;52.018;6.306;2022-10-31T01:37:07;19.25;;;13.85;;
18899;SDS011;9582;52.018;6.306;2022-10-31T01:39:34;23.63;;;15.10;;
18899;SDS011;9582;52.018;6.306;2022-10-31T01:42:00;22.33;;;15.43;;
18899;SDS011;9582;52.018;6.306;2022-10-31T01:47:29;25.33;;;15.87;;
18899;SDS011;9582;52.018;6.306;2022-10-31T01:50:00;24.67;;;16.00;;
18899;SDS011;9582;52.018;6.306;2022-10-31T01:52:31;25.50;;;16.20;;
18899;SDS011;9582;52.018;6.306;2022-10-31T01:55:03;28.80;;;17.27;;
18899;SDS011;9582;52.018;6.306;2022-10-31T01:57:33;24.20;;;14.87;;
18899;SDS011;9582;52.018;6.306;2022-10-31T02:00:03;22.43;;;15.30;;
18899;SDS011;9582;52.018;6.306;2022-10-31T02:02:39;21.55;;;14.77;;
18899;SDS011;9582;52.018;6.306;2022-10-31T02:05:08;23.03;;;13.90;;
18899;SDS011;9582;52.018;6.306;2022-10-31T02:07:38;17.23;;;13.23;;
18899;SDS011;9582;52.018;6.306;2022-10-31T02:10:07;23.40;;;15.40;;
18899;SDS011;9582;52.018;6.306;2022-10-31T02:12:34;102.60;;;22.00;;
18899;SDS011;9582;52.018;6.306;2022-10-31T02:15:03;55.60;;;18.60;;
18899;SDS011;9582;52.018;6.306;2022-10-31T02:17:31;33.40;;;14.67;;
18899;SDS011;9582;52.018;6.306;2022-10-31T02:20:03;17.43;;;12.80;;
18899;SDS011;9582;52.018;6.306;2022-10-31T02:22:40;21.83;;;14.33;;
18899;SDS011;9582;52.018;6.306;2022-10-31T02:25:26;23.70;;;14.97;;
18899;SDS011;9582;52.018;6.306;2022-10-31T02:28:18;23.93;;;15.13;;
18899;SDS011;9582;52.018;6.306;2022-10-31T02:31:01;24.83;;;16.70;;
18899;SDS011;9582;52.018;6.306;2022-10-31T02:33:38;23.63;;;15.07;;
18899;SDS011;9582;52.018;6.306;2022-10-31T02:36:10;25.33;;;16.43;;
18899;SDS011;9582;52.018;6.306;2022-10-31T02:38:45;27.07;;;16.80;;
18899;SDS011;9582;52.018;6.306;2022-10-31T02:41:32;25.60;;;17.50;;
18899;SDS011;9582;52.018;6.306;2022-10-31T02:44:10;29.47;;;19.80;;
18899;SDS011;9582;52.018;6.306;2022-10-31T02:46:47;29.23;;;18.50;;
18899;SDS011;9582;52.018;6.306;2022-10-31T02:49:18;29.67;;;18.57;;
18899;SDS011;9582;52.018;6.306;2022-10-31T02:51:51;29.30;;;19.10;;
18899;SDS011;9582;52.018;6.306;2022-10-31T02:54:18;32.27;;;18.73;;
18899;SDS011;9582;52.018;6.306;2022-10-31T02:56:51;28.10;;;18.47;;
18899;SDS011;9582;52.018;6.306;2022-10-31T02:59:22;27.87;;;18.00;;
18899;SDS011;9582;52.018;6.306;2022-10-31T03:02:04;25.63;;;17.40;;
18899;SDS011;9582;52.018;6.306;2022-10-31T03:04:49;38.83;;;21.57;;
18899;SDS011;9582;52.018;6.306;2022-10-31T03:07:34;29.33;;;19.57;;
18899;SDS011;9582;52.018;6.306;2022-10-31T03:10:13;29.33;;;19.13;;
18899;SDS011;9582;52.018;6.306;2022-10-31T03:12:46;27.37;;;17.53;;
18899;SDS011;9582;52.018;6.306;2022-10-31T03:15:18;30.67;;;20.00;;
18899;SDS011;9582;52.018;6.306;2022-10-31T03:17:52;34.43;;;19.70;;
18899;SDS011;9582;52.018;6.306;2022-10-31T03:20:24;26.90;;;17.67;;
18899;SDS011;9582;52.018;6.306;2022-10-31T03:22:56;26.97;;;17.57;;
18899;SDS011;9582;52.018;6.306;2022-10-31T03:25:25;25.77;;;17.93;;
18899;SDS011;9582;52.018;6.306;2022-10-31T03:27:55;26.43;;;18.13;;
18899;SDS011;9582;52.018;6.306;2022-10-31T03:30:23;24.00;;;17.80;;
18899;SDS011;9582;52.018;6.306;2022-10-31T03:32:57;25.80;;;17.37;;
18899;SDS011;9582;52.018;6.306;2022-10-31T03:35:28;21.23;;;15.70;;
18899;SDS011;9582;52.018;6.306;2022-10-31T03:37:56;17.97;;;13.53;;
18899;SDS011;9582;52.018;6.306;2022-10-31T03:40:25;16.43;;;12.37;;
18899;SDS011;9582;52.018;6.306;2022-10-31T03:42:54;19.37;;;12.57;;
18899;SDS011;9582;52.018;6.306;2022-10-31T03:45:26;131.70;;;20.77;;
18899;SDS011;9582;52.018;6.306;2022-10-31T03:47:57;637.80;;;48.30;;
18899;SDS011;9582;52.018;6.306;2022-10-31T03:50:25;400.63;;;33.77;;
18899;SDS011;9582;52.018;6.306;2022-10-31T03:52:58;26.87;;;14.70;;
18899;SDS011;9582;52.018;6.306;2022-10-31T03:55:31;19.53;;;13.37;;
18899;SDS011;9582;52.018;6.306;2022-10-31T03:58:06;13.40;;;10.37;;
18899;SDS011;9582;52.018;6.306;2022-10-31T04:00:36;14.47;;;10.13;;
18899;SDS011;9582;52.018;6.306;2022-10-31T04:03:09;14.43;;;11.13;;
18899;SDS011;9582;52.018;6.306;2022-10-31T04:05:42;12.97;;;10.60;;
18899;SDS011;9582;52.018;6.306;2022-10-31T04:08:13;11.37;;;10.10;;
18899;SDS011;9582;52.018;6.306;2022-10-31T04:10:43;12.33;;;9.63;;
18899;SDS011;9582;52.018;6.306;2022-10-31T04:13:14;12.10;;;9.40;;
18899;SDS011;9582;52.018;6.306;2022-10-31T04:15:48;20.23;;;11.93;;
18899;SDS011;9582;52.018;6.306;2022-10-31T04:18:23;20.20;;;10.30;;
18899;SDS011;9582;52.018;6.306;2022-10-31T04:20:58;383.30;;;28.20;;
18899;SDS011;9582;52.018;6.306;2022-10-31T04:23:26;72.63;;;12.77;;
18899;SDS011;9582;52.018;6.306;2022-10-31T04:25:53;213.53;;;19.40;;
18899;SDS011;9582;52.018;6.306;2022-10-31T04:28:20;97.87;;;12.33;;
18899;SDS011;9582;52.018;6.306;2022-10-31T04:30:47;53.73;;;11.40;;
18899;SDS011;9582;52.018;6.306;2022-10-31T04:33:13;91.53;;;14.47;;
18899;SDS011;9582;52.018;6.306;2022-10-31T04:35:44;31.13;;;9.43;;
18899;SDS011;9582;52.018;6.306;2022-10-31T04:38:11;22.37;;;8.30;;
18899;SDS011;9582;52.018;6.306;2022-10-31T04:40:38;9.67;;;8.17;;
18899;SDS011;9582;52.018;6.306;2022-10-31T04:43:40;14.37;;;10.20;;
18899;SDS011;9582;52.018;6.306;2022-10-31T04:46:07;14.37;;;10.13;;
18899;SDS011;9582;52.018;6.306;2022-10-31T04:48:33;189.10;;;18.73;;
18899;SDS011;9582;52.018;6.306;2022-10-31T04:51:03;81.83;;;12.17;;
18899;SDS011;9582;52.018;6.306;2022-10-31T04:53:31;35.10;;;11.23;;
18899;SDS011;9582;52.018;6.306;2022-10-31T04:56:20;19.57;;;12.23;;
18899;SDS011;9582;52.018;6.306;2022-10-31T04:58:51;21.47;;;12.97;;
18899;SDS011;9582;52.018;6.306;2022-10-31T05:01:18;39.67;;;15.47;;
18899;SDS011;9582;52.018;6.306;2022-10-31T05:03:44;17.00;;;11.27;;
18899;SDS011;9582;52.018;6.306;2022-10-31T05:06:12;17.47;;;11.73;;
18899;SDS011;9582;52.018;6.306;2022-10-31T05:08:40;92.93;;;22.27;;
18899;SDS011;9582;52.018;6.306;2022-10-31T05:11:08;291.37;;;35.37;;
18899;SDS011;9582;52.018;6.306;2022-10-31T05:13:35;223.90;;;25.57;;
18899;SDS011;9582;52.018;6.306;2022-10-31T05:16:11;425.37;;;48.07;;
18899;SDS011;9582;52.018;6.306;2022-10-31T05:18:56;130.17;;;21.90;;
18899;SDS011;9582;52.018;6.306;2022-10-31T05:21:50;152.63;;;20.73;;
18899;SDS011;9582;52.018;6.306;2022-10-31T05:24:18;313.97;;;37.50;;
18899;SDS011;9582;52.018;6.306;2022-10-31T05:26:47;262.67;;;29.40;;
18899;SDS011;9582;52.018;6.306;2022-10-31T05:29:13;235.40;;;27.53;;
18899;SDS011;9582;52.018;6.306;2022-10-31T05:31:40;70.37;;;14.53;;
18899;SDS011;9582;52.018;6.306;2022-10-31T05:34:14;72.53;;;14.67;;
18899;SDS011;9582;52.018;6.306;2022-10-31T05:36:43;46.00;;;15.87;;
18899;SDS011;9582;52.018;6.306;2022-10-31T05:39:16;37.77;;;14.57;;
18899;SDS011;9582;52.018;6.306;2022-10-31T05:41:46;34.23;;;13.87;;
18899;SDS011;9582;52.018;6.306;2022-10-31T05:44:21;254.17;;;31.87;;
18899;SDS011;9582;52.018;6.306;2022-10-31T05:47:20;26.57;;;12.80;;
18899;SDS011;9582;52.018;6.306;2022-10-31T05:50:06;21.40;;;13.40;;
18899;SDS011;9582;52.018;6.306;2022-10-31T05:52:34;19.30;;;12.30;;
18899;SDS011;9582;52.018;6.306;2022-10-31T05:55:09;27.23;;;14.10;;
18899;SDS011;9582;52.018;6.306;2022-10-31T05:57:40;18.73;;;12.90;;
18899;SDS011;9582;52.018;6.306;2022-10-31T06:00:08;18.90;;;13.40;;
18899;SDS011;9582;52.018;6.306;2022-10-31T06:02:46;31.43;;;14.70;;
18899;SDS011;9582;52.018;6.306;2022-10-31T06:05:21;25.30;;;17.23;;
18899;SDS011;9582;52.018;6.306;2022-10-31T06:07:48;38.20;;;19.27;;
18899;SDS011;9582;52.018;6.306;2022-10-31T06:10:16;332.57;;;35.23;;
18899;SDS011;9582;52.018;6.306;2022-10-31T06:12:45;163.07;;;24.87;;
18899;SDS011;9582;52.018;6.306;2022-10-31T06:15:28;204.50;;;24.47;;
18899;SDS011;9582;52.018;6.306;2022-10-31T06:17:57;283.00;;;32.33;;
18899;SDS011;9582;52.018;6.306;2022-10-31T06:20:25;484.30;;;48.53;;
18899;SDS011;9582;52.018;6.306;2022-10-31T06:23:02;80.13;;;19.57;;
18899;SDS011;9582;52.018;6.306;2022-10-31T06:25:32;304.93;;;32.23;;
18899;SDS011;9582;52.018;6.306;2022-10-31T06:27:59;311.47;;;40.70;;
18899;SDS011;9582;52.018;6.306;2022-10-31T06:30:34;282.40;;;36.90;;
18899;SDS011;9582;52.018;6.306;2022-10-31T06:33:02;544.57;;;61.73;;
18899;SDS011;9582;52.018;6.306;2022-10-31T06:35:29;189.70;;;31.00;;
18899;SDS011;9582;52.018;6.306;2022-10-31T06:37:56;357.63;;;41.73;;
18899;SDS011;9582;52.018;6.306;2022-10-31T06:40:33;82.17;;;19.57;;
18899;SDS011;9582;52.018;6.306;2022-10-31T06:43:14;22.83;;;15.87;;
18899;SDS011;9582;52.018;6.306;2022-10-31T06:45:41;34.63;;;15.90;;
18899;SDS011;9582;52.018;6.306;2022-10-31T06:48:32;26.23;;;15.50;;
18899;SDS011;9582;52.018;6.306;2022-10-31T06:51:19;27.07;;;16.70;;
18899;SDS011;9582;52.018;6.306;2022-10-31T06:53:49;41.97;;;17.03;;
18899;SDS011;9582;52.018;6.306;2022-10-31T06:56:17;40.53;;;16.10;;
18899;SDS011;9582;52.018;6.306;2022-10-31T06:58:48;26.70;;;16.53;;
18899;SDS011;9582;52.018;6.306;2022-10-31T07:01:18;122.57;;;23.30;;
18899;SDS011;9582;52.018;6.306;2022-10-31T07:03:44;166.30;;;23.63;;
18899;SDS011;9582;52.018;6.306;2022-10-31T07:06:11;173.60;;;25.00;;
18899;SDS011;9582;52.018;6.306;2022-10-31T07:08:38;55.70;;;18.23;;
18899;SDS011;9582;52.018;6.306;2022-10-31T07:11:05;438.37;;;48.03;;
18899;SDS011;9582;52.018;6.306;2022-10-31T07:13:34;531.07;;;57.10;;
18899;SDS011;9582;52.018;6.306;2022-10-31T07:16:06;505.90;;;53.63;;
18899;SDS011;9582;52.018;6.306;2022-10-31T07:18:34;514.97;;;59.53;;
18899;SDS011;9582;52.018;6.306;2022-10-31T07:21:01;281.67;;;39.27;;
18899;SDS011;9582;52.018;6.306;2022-10-31T07:23:28;387.77;;;49.70;;
18899;SDS011;9582;52.018;6.306;2022-10-31T07:26:13;74.93;;;24.20;;
18899;SDS011;9582;52.018;6.306;2022-10-31T07:28:47;93.23;;;26.80;;
18899;SDS011;9582;52.018;6.306;2022-10-31T07:31:15;52.27;;;23.57;;
18899;SDS011;9582;52.018;6.306;2022-10-31T07:33:42;52.80;;;24.73;;
18899;SDS011;9582;52.018;6.306;2022-10-31T07:36:26;61.13;;;25.77;;
18899;SDS011;9582;52.018;6.306;2022-10-31T07:38:57;63.77;;;28.00;;
18899;SDS011;9582;52.018;6.306;2022-10-31T07:41:25;70.03;;;29.80;;
18899;SDS011;9582;52.018;6.306;2022-10-31T07:43:54;86.03;;;31.27;;
18899;SDS011;9582;52.018;6.306;2022-10-31T07:46:52;85.10;;;32.60;;
18899;SDS011;9582;52.018;6.306;2022-10-31T07:49:45;93.00;;;33.57;;
18899;SDS011;9582;52.018;6.306;2022-10-31T07:52:30;97.70;;;34.63;;
18899;SDS011;9582;52.018;6.306;2022-10-31T07:55:15;89.23;;;34.07;;
18899;SDS011;9582;52.018;6.306;2022-10-31T07:57:46;98.97;;;36.63;;
18899;SDS011;9582;52.018;6.306;2022-10-31T08:00:22;85.03;;;34.90;;
18899;SDS011;9582;52.018;6.306;2022-10-31T08:02:55;65.87;;;32.33;;
18899;SDS011;9582;52.018;6.306;2022-10-31T08:05:41;81.50;;;37.27;;
18899;SDS011;9582;52.018;6.306;2022-10-31T08:08:29;82.30;;;37.87;;
18899;SDS011;9582;52.018;6.306;2022-10-31T08:10:57;80.23;;;37.67;;
18899;SDS011;9582;52.018;6.306;2022-10-31T08:13:24;81.23;;;39.67;;
18899;SDS011;9582;52.018;6.306;2022-10-31T08:15:53;78.00;;;38.47;;
18899;SDS011;9582;52.018;6.306;2022-10-31T08:18:23;89.03;;;40.47;;
18899;SDS011;9582;52.018;6.306;2022-10-31T08:20:51;93.97;;;43.20;;
18899;SDS011;9582;52.018;6.306;2022-10-31T08:23:17;81.43;;;41.60;;
18899;SDS011;9582;52.018;6.306;2022-10-31T08:25:44;92.67;;;41.97;;
18899;SDS011;9582;52.018;6.306;2022-10-31T08:28:13;87.40;;;40.13;;
18899;SDS011;9582;52.018;6.306;2022-10-31T08:30:42;85.33;;;42.10;;
18899;SDS011;9582;52.018;6.306;2022-10-31T08:33:32;88.13;;;41.83;;
18899;SDS011;9582;52.018;6.306;2022-10-31T08:36:34;81.20;;;41.63;;
18899;SDS011;9582;52.018;6.306;2022-10-31T08:39:08;91.00;;;42.30;;
18899;SDS011;9582;52.018;6.306;2022-10-31T08:41:35;85.57;;;42.73;;
18899;SDS011;9582;52.018;6.306;2022-10-31T08:44:02;85.77;;;42.73;;
18899;SDS011;9582;52.018;6.306;2022-10-31T08:46:28;78.90;;;41.40;;
18899;SDS011;9582;52.018;6.306;2022-10-31T08:48:56;87.93;;;41.87;;
18899;SDS011;9582;52.018;6.306;2022-10-31T08:51:23;84.20;;;43.47;;
18899;SDS011;9582;52.018;6.306;2022-10-31T08:53:52;87.93;;;41.87;;
18899;SDS011;9582;52.018;6.306;2022-10-31T08:56:34;82.83;;;42.40;;
18899;SDS011;9582;52.018;6.306;2022-10-31T08:59:05;72.93;;;38.90;;
18899;SDS011;9582;52.018;6.306;2022-10-31T09:02:04;78.60;;;40.33;;
18899;SDS011;9582;52.018;6.306;2022-10-31T09:04:33;72.38;;;37.67;;
18899;SDS011;9582;52.018;6.306;2022-10-31T09:07:00;69.30;;;38.60;;
18899;SDS011;9582;52.018;6.306;2022-10-31T09:09:26;75.28;;;38.47;;
18899;SDS011;9582;52.018;6.306;2022-10-31T09:11:53;65.38;;;36.90;;
18899;SDS011;9582;52.018;6.306;2022-10-31T09:14:22;66.72;;;37.33;;
18899;SDS011;9582;52.018;6.306;2022-10-31T09:17:17;59.63;;;36.35;;
18899;SDS011;9582;52.018;6.306;2022-10-31T09:20:06;57.35;;;34.63;;
18899;SDS011;9582;52.018;6.306;2022-10-31T09:22:34;55.47;;;31.85;;
18899;SDS011;9582;52.018;6.306;2022-10-31T09:25:00;48.72;;;27.73;;
18899;SDS011;9582;52.018;6.306;2022-10-31T09:27:27;40.70;;;25.42;;
18899;SDS011;9582;52.018;6.306;2022-10-31T09:29:56;36.40;;;23.27;;
18899;SDS011;9582;52.018;6.306;2022-10-31T09:32:22;31.40;;;21.05;;
18899;SDS011;9582;52.018;6.306;2022-10-31T09:34:49;31.77;;;19.92;;
18899;SDS011;9582;52.018;6.306;2022-10-31T09:37:20;28.33;;;19.48;;
18899;SDS011;9582;52.018;6.306;2022-10-31T09:39:46;25.95;;;17.63;;
18899;SDS011;9582;52.018;6.306;2022-10-31T09:42:26;25.92;;;17.63;;
18899;SDS011;9582;52.018;6.306;2022-10-31T09:45:11;24.55;;;15.98;;
18899;SDS011;9582;52.018;6.306;2022-10-31T09:47:48;24.15;;;15.98;;
18899;SDS011;9582;52.018;6.306;2022-10-31T09:50:34;22.75;;;16.42;;
18899;SDS011;9582;52.018;6.306;2022-10-31T09:53:29;28.90;;;17.02;;
18899;SDS011;9582;52.018;6.306;2022-10-31T09:56:02;24.50;;;16.55;;
18899;SDS011;9582;52.018;6.306;2022-10-31T09:58:32;23.75;;;16.52;;
18899;SDS011;9582;52.018;6.306;2022-10-31T10:01:03;28.52;;;17.45;;
18899;SDS011;9582;52.018;6.306;2022-10-31T10:03:34;27.80;;;17.30;;
18899;SDS011;9582;52.018;6.306;2022-10-31T10:06:27;25.23;;;16.77;;
18899;SDS011;9582;52.018;6.306;2022-10-31T10:09:19;24.10;;;17.33;;
18899;SDS011;9582;52.018;6.306;2022-10-31T10:18:05;24.73;;;16.55;;
18899;SDS011;9582;52.018;6.306;2022-10-31T10:20:39;23.35;;;16.17;;
18899;SDS011;9582;52.018;6.306;2022-10-31T10:23:23;26.73;;;16.25;;
18899;SDS011;9582;52.018;6.306;2022-10-31T10:26:02;26.45;;;16.95;;
18899;SDS011;9582;52.018;6.306;2022-10-31T10:28:36;27.95;;;17.35;;
18899;SDS011;9582;52.018;6.306;2022-10-31T10:31:07;26.35;;;17.77;;
18899;SDS011;9582;52.018;6.306;2022-10-31T10:33:40;28.63;;;18.30;;
18899;SDS011;9582;52.018;6.306;2022-10-31T10:36:10;28.92;;;19.10;;
18899;SDS011;9582;52.018;6.306;2022-10-31T10:38:44;29.35;;;19.23;;
18899;SDS011;9582;52.018;6.306;2022-10-31T10:41:18;27.55;;;18.83;;
18899;SDS011;9582;52.018;6.306;2022-10-31T10:43:45;27.92;;;19.23;;
18899;SDS011;9582;52.018;6.306;2022-10-31T10:46:18;30.30;;;19.13;;
18899;SDS011;9582;52.018;6.306;2022-10-31T10:49:15;28.38;;;18.17;;
18899;SDS011;9582;52.018;6.306;2022-10-31T10:51:44;26.98;;;17.95;;
18899;SDS011;9582;52.018;6.306;2022-10-31T10:54:17;28.25;;;19.00;;
18899;SDS011;9582;52.018;6.306;2022-10-31T10:57:04;27.48;;;19.02;;
18899;SDS011;9582;52.018;6.306;2022-10-31T10:59:42;25.88;;;17.63;;
18899;SDS011;9582;52.018;6.306;2022-10-31T11:02:15;28.58;;;17.13;;
18899;SDS011;9582;52.018;6.306;2022-10-31T11:04:43;25.65;;;17.25;;
18899;SDS011;9582;52.018;6.306;2022-10-31T11:07:13;24.40;;;16.38;;
18899;SDS011;9582;52.018;6.306;2022-10-31T11:09:39;24.33;;;17.00;;
18899;SDS011;9582;52.018;6.306;2022-10-31T11:12:08;23.90;;;15.63;;
18899;SDS011;9582;52.018;6.306;2022-10-31T11:14:42;25.75;;;16.58;;
18899;SDS011;9582;52.018;6.306;2022-10-31T11:17:17;25.38;;;16.35;;
18899;SDS011;9582;52.018;6.306;2022-10-31T11:19:51;29.08;;;16.35;;
18899;SDS011;9582;52.018;6.306;2022-10-31T11:22:26;24.55;;;16.80;;
18899;SDS011;9582;52.018;6.306;2022-10-31T11:24:52;24.73;;;16.45;;
18899;SDS011;9582;52.018;6.306;2022-10-31T11:27:21;25.15;;;16.48;;
18899;SDS011;9582;52.018;6.306;2022-10-31T11:29:48;25.08;;;16.55;;
18899;SDS011;9582;52.018;6.306;2022-10-31T11:32:17;25.27;;;16.85;;
18899;SDS011;9582;52.018;6.306;2022-10-31T11:34:47;22.90;;;15.60;;
18899;SDS011;9582;52.018;6.306;2022-10-31T11:37:16;27.27;;;17.77;;
18899;SDS011;9582;52.018;6.306;2022-10-31T11:39:45;25.88;;;16.70;;
18899;SDS011;9582;52.018;6.306;2022-10-31T11:42:18;25.95;;;17.05;;
18899;SDS011;9582;52.018;6.306;2022-10-31T11:44:48;24.30;;;17.55;;
18899;SDS011;9582;52.018;6.306;2022-10-31T11:47:17;27.73;;;16.45;;
18899;SDS011;9582;52.018;6.306;2022-10-31T11:49:47;26.50;;;16.75;;
18899;SDS011;9582;52.018;6.306;2022-10-31T11:52:16;24.45;;;16.08;;
18899;SDS011;9582;52.018;6.306;2022-10-31T11:54:46;22.33;;;15.52;;
18899;SDS011;9582;52.018;6.306;2022-10-31T11:57:24;23.58;;;15.23;;
18899;SDS011;9582;52.018;6.306;2022-10-31T11:59:53;24.17;;;16.15;;
18899;SDS011;9582;52.018;6.306;2022-10-31T12:02:21;25.60;;;15.88;;
18899;SDS011;9582;52.018;6.306;2022-10-31T12:04:51;25.58;;;15.88;;
18899;SDS011;9582;52.018;6.306;2022-10-31T12:07:24;25.00;;;15.80;;
18899;SDS011;9582;52.018;6.306;2022-10-31T12:09:50;32.00;;;17.08;;
18899;SDS011;9582;52.018;6.306;2022-10-31T12:12:24;25.02;;;15.90;;
18899;SDS011;9582;52.018;6.306;2022-10-31T12:15:04;25.35;;;16.00;;
18899;SDS011;9582;52.018;6.306;2022-10-31T12:17:45;26.75;;;17.02;;
18899;SDS011;9582;52.018;6.306;2022-10-31T12:20:20;27.42;;;16.27;;
18899;SDS011;9582;52.018;6.306;2022-10-31T12:22:54;27.08;;;16.20;;
18899;SDS011;9582;52.018;6.306;2022-10-31T12:25:31;28.45;;;15.85;;
18899;SDS011;9582;52.018;6.306;2022-10-31T12:31:12;26.27;;;16.88;;
18899;SDS011;9582;52.018;6.306;2022-10-31T12:33:52;26.45;;;16.17;;
18899;SDS011;9582;52.018;6.306;2022-10-31T12:36:32;24.27;;;15.95;;
18899;SDS011;9582;52.018;6.306;2022-10-31T12:39:21;27.92;;;16.88;;
18899;SDS011;9582;52.018;6.306;2022-10-31T12:41:51;25.48;;;16.83;;
18899;SDS011;9582;52.018;6.306;2022-10-31T12:44:38;26.50;;;16.38;;
18899;SDS011;9582;52.018;6.306;2022-10-31T12:47:26;26.45;;;16.40;;
18899;SDS011;9582;52.018;6.306;2022-10-31T12:50:17;24.90;;;15.70;;
18899;SDS011;9582;52.018;6.306;2022-10-31T12:52:53;25.80;;;16.92;;
18899;SDS011;9582;52.018;6.306;2022-10-31T12:58:21;21.80;;;15.73;;
18899;SDS011;9582;52.018;6.306;2022-10-31T13:00:51;28.35;;;16.30;;
18899;SDS011;9582;52.018;6.306;2022-10-31T13:03:30;25.42;;;17.23;;
18899;SDS011;9582;52.018;6.306;2022-10-31T13:06:02;25.90;;;16.85;;
18899;SDS011;9582;52.018;6.306;2022-10-31T13:08:34;26.25;;;16.65;;
18899;SDS011;9582;52.018;6.306;2022-10-31T13:11:08;28.15;;;16.95;;
18899;SDS011;9582;52.018;6.306;2022-10-31T13:13:38;29.48;;;17.80;;
18899;SDS011;9582;52.018;6.306;2022-10-31T13:16:10;27.52;;;17.60;;
18899;SDS011;9582;52.018;6.306;2022-10-31T13:18:42;27.67;;;17.35;;
18899;SDS011;9582;52.018;6.306;2022-10-31T13:21:15;31.15;;;18.45;;
18899;SDS011;9582;52.018;6.306;2022-10-31T13:23:48;33.05;;;18.30;;
18899;SDS011;9582;52.018;6.306;2022-10-31T13:26:16;31.50;;;20.13;;
18899;SDS011;9582;52.018;6.306;2022-10-31T13:28:50;28.92;;;18.25;;
18899;SDS011;9582;52.018;6.306;2022-10-31T13:31:23;30.77;;;19.40;;
18899;SDS011;9582;52.018;6.306;2022-10-31T13:33:52;34.03;;;20.30;;
18899;SDS011;9582;52.018;6.306;2022-10-31T13:36:24;33.58;;;19.75;;
18899;SDS011;9582;52.018;6.306;2022-10-31T13:38:59;33.10;;;19.77;;
18899;SDS011;9582;52.018;6.306;2022-10-31T13:41:33;32.22;;;20.27;;
18899;SDS011;9582;52.018;6.306;2022-10-31T13:44:10;33.72;;;20.75;;
18899;SDS011;9582;52.018;6.306;2022-10-31T13:46:41;33.60;;;19.70;;
18899;SDS011;9582;52.018;6.306;2022-10-31T13:52:06;34.30;;;21.15;;
18899;SDS011;9582;52.018;6.306;2022-10-31T13:54:40;36.92;;;20.50;;
18899;SDS011;9582;52.018;6.306;2022-10-31T13:57:13;32.25;;;20.60;;
18899;SDS011;9582;52.018;6.306;2022-10-31T13:59:47;32.45;;;20.58;;
18899;SDS011;9582;52.018;6.306;2022-10-31T14:02:17;34.45;;;21.15;;
18899;SDS011;9582;52.018;6.306;2022-10-31T14:04:48;36.58;;;19.85;;
18899;SDS011;9582;52.018;6.306;2022-10-31T14:07:18;33.53;;;21.17;;
18899;SDS011;9582;52.018;6.306;2022-10-31T14:09:52;33.33;;;21.48;;
18899;SDS011;9582;52.018;6.306;2022-10-31T14:12:23;34.22;;;21.08;;
18899;SDS011;9582;52.018;6.306;2022-10-31T14:14:54;37.42;;;21.05;;
18899;SDS011;9582;52.018;6.306;2022-10-31T14:17:23;34.38;;;20.67;;
18899;SDS011;9582;52.018;6.306;2022-10-31T14:20:00;34.28;;;20.58;;
18899;SDS011;9582;52.018;6.306;2022-10-31T14:22:45;34.22;;;20.40;;
18899;SDS011;9582;52.018;6.306;2022-10-31T14:25:25;32.35;;;20.67;;
18899;SDS011;9582;52.018;6.306;2022-10-31T14:27:56;35.45;;;21.58;;
18899;SDS011;9582;52.018;6.306;2022-10-31T14:30:25;33.50;;;22.08;;
18899;SDS011;9582;52.018;6.306;2022-10-31T14:32:54;34.92;;;21.30;;
18899;SDS011;9582;52.018;6.306;2022-10-31T14:35:25;37.13;;;22.45;;
18899;SDS011;9582;52.018;6.306;2022-10-31T14:38:04;38.33;;;21.70;;
18899;SDS011;9582;52.018;6.306;2022-10-31T14:40:45;37.63;;;22.05;;
18899;SDS011;9582;52.018;6.306;2022-10-31T14:43:23;35.90;;;21.75;;
18899;SDS011;9582;52.018;6.306;2022-10-31T14:45:59;35.58;;;20.63;;
18899;SDS011;9582;52.018;6.306;2022-10-31T14:48:38;34.67;;;21.77;;
18899;SDS011;9582;52.018;6.306;2022-10-31T14:51:18;30.83;;;20.85;;
18899;SDS011;9582;52.018;6.306;2022-10-31T14:53:47;34.35;;;20.75;;
18899;SDS011;9582;52.018;6.306;2022-10-31T14:56:18;38.63;;;21.67;;
18899;SDS011;9582;52.018;6.306;2022-10-31T14:58:47;31.08;;;19.52;;
18899;SDS011;9582;52.018;6.306;2022-10-31T15:01:19;34.03;;;19.92;;
18899;SDS011;9582;52.018;6.306;2022-10-31T15:03:49;32.15;;;20.65;;
18899;SDS011;9582;52.018;6.306;2022-10-31T15:06:18;34.72;;;20.67;;
18899;SDS011;9582;52.018;6.306;2022-10-31T15:08:48;36.38;;;22.10;;
18899;SDS011;9582;52.018;6.306;2022-10-31T15:11:17;32.20;;;19.33;;
18899;SDS011;9582;52.018;6.306;2022-10-31T15:13:46;34.13;;;21.50;;
18899;SDS011;9582;52.018;6.306;2022-10-31T15:16:14;34.25;;;20.38;;
18899;SDS011;9582;52.018;6.306;2022-10-31T15:18:46;32.97;;;21.08;;
18899;SDS011;9582;52.018;6.306;2022-10-31T15:21:16;33.00;;;19.70;;
18899;SDS011;9582;52.018;6.306;2022-10-31T15:23:45;38.28;;;21.33;;